TPOK1: Kansas River, State-Line, KS

                                SHEF ID:       TPOK1     MARAIS DES CYGNES R NR KS-MO ST
STATION TYPE:

STAGE STAGE(2) RIV-FLOW BAT-LOAD
ft ft cfs volt
Ccp-Rev Ccp-Rev Ccp-Rev Ccp-Rev
(America/Chicago)
06/29 00:00 10.83 10.82 4071 12.53
06/29 01:00 10.68 10.71 3957 12.50
06/29 02:00 10.60 10.59 3897 12.50
06/29 03:00 10.50 10.47 3822 12.47
06/29 04:00 10.36 10.33 3718 12.46
06/29 05:00 10.25 10.24 3637 12.44
06/29 06:00 10.16 10.11 3571 12.43
06/29 07:00 10.04 10.02 3484 12.44
06/29 08:00 9.97 9.90 3433 12.48
06/29 09:00 9.85 9.83 3347 12.80
06/29 10:00 9.74 9.75 3269 13.20
06/29 11:00 9.66 9.65 3213 13.09
06/29 12:00 9.55 9.56 3136 13.35
06/29 13:00 9.44 9.43 3060 13.28
06/29 14:00 9.37 9.36 3012 13.17
06/29 15:00 9.28 9.28 2950 13.03
06/29 16:00 9.21 9.22 2903 12.88
06/29 17:00 9.16 9.15 2869 12.82
06/29 18:00 9.08 9.04 2815 12.80
06/29 19:00 8.99 8.99 2755 12.67
06/29 20:00 8.92 8.93 2709 12.61
06/29 21:00 8.86 8.86 2669 12.58
06/29 22:00 8.81 8.82 2637 12.56
06/29 23:00 8.73 8.71 2585 12.53
Data processed at Tue 30Jun2026 04:52 GMT

NOTICE: If you are parsing this page

Please convert to using our Data API. Starting early 2026 we will be migrating to: https://water.usace.army.mil with modern pages rendered in JavaScript. When this migration completes you will no longer be able to scrape this page! CWMSDataAPI (CDA)

Timeseries IDs (TSIDs)

TSIDs used from left to right in the data table
MKSL.Stage.Inst.1Hour.0.Ccp-Rev
MKSL.Stage-Alt.Inst.1Hour.0.Ccp-Rev
MKSL.Flow.Inst.1Hour.0.Ccp-Rev
MKSL.Volt-Battery Load.Inst.1Hour.0.Ccp-Rev

                            

All information presented herein is the property of the government of the United States of America and may be revised or deleted at any time without prior notice. Dissemination of this information without the expressed written consent of the Public Affairs Office, Tulsa District U.S. Army Corps of Engineers is strictly prohibited. These data are gathered electronically and, as presented, have NOT undergone any form of quality control. These data are NOT guaranteed to be valid or correct.